KDAG/DAG METAR and TAF weather

Enter ICAO airport designator
Station Type Date Time Source
KDAG METAR 2021/01/27 12:50 UTC NOAA

KDAG 271250Z AUTO 05003KT 10SM OVC090 02/M03 A3010 RMK AO2 SLP193 T00221028


Station Type Date Time Source
KDAG Decoded METAR 2021/01/27 12:50 UTC NOAA

BARSTOW-DAGGETT AIRPORT, CA, United States (KDAG) 34-51N 116-47W 587M
Jan 27, 2021 - 07:50 AM EST / 2021.01.27 1250 UTC
Wind: from the NE (050 degrees) at 3 MPH (3 KT):0
Visibility: 10 mile(s):0
Sky conditions: overcast
Temperature: 36.0 F (2.2 C)
Dew Point: 27.0 F (-2.8 C)
Relative Humidity: 69%
Pressure (altimeter): 30.1 in. Hg (1019 hPa)
ob: KDAG 271250Z AUTO 05003KT 10SM OVC090 02/M03 A3010 RMK AO2 SLP193 T00221028
cycle: 13

Station Type Date Time Source
KDAG TAF 2021/01/27 12:45 UTC NOAA

TAF KDAG 271142Z 2712/2812 27006KT P6SM BKN080 OVC100
FM272000 11010KT P6SM OVC100
FM280300 VRB05KT P6SM BKN100 OVC140

Example: see airport list